createdAt,value
2022-08-18T00:01:25.777Z,21.10
2022-08-18T00:04:03.658Z,21.10
2022-08-18T00:06:37.461Z,21.20
2022-08-18T00:09:10.004Z,21.40
2022-08-18T00:11:42.230Z,21.60
2022-08-18T00:14:21.607Z,21.90
2022-08-18T00:16:55.972Z,21.80
2022-08-18T00:19:47.093Z,21.70
2022-08-18T00:22:18.132Z,21.50
2022-08-18T00:24:53.094Z,21.50
2022-08-18T00:27:28.174Z,21.50
2022-08-18T00:30:01.406Z,21.40
2022-08-18T00:32:34.017Z,22.20
2022-08-18T00:35:09.617Z,21.40
2022-08-18T00:37:38.963Z,21.30
2022-08-18T00:40:12.741Z,21.20
2022-08-18T00:42:45.340Z,21.20
2022-08-18T00:45:17.365Z,21.20
2022-08-18T00:47:46.140Z,21.30
2022-08-18T00:50:22.732Z,21.30
2022-08-18T00:52:58.794Z,21.40
2022-08-18T00:55:30.767Z,21.50
2022-08-18T00:58:04.812Z,21.50
2022-08-18T01:00:34.396Z,21.60
2022-08-18T01:03:08.479Z,21.60
2022-08-18T01:05:45.357Z,21.70
2022-08-18T01:08:17.233Z,21.60
2022-08-18T01:10:57.754Z,21.50
2022-08-18T01:13:30.550Z,21.50
2022-08-18T01:15:59.779Z,21.60
2022-08-18T01:18:45.788Z,21.50
2022-08-18T01:21:38.765Z,21.50
2022-08-18T01:24:11.728Z,21.50
2022-08-18T01:26:50.370Z,21.50
2022-08-18T01:29:20.618Z,21.50
2022-08-18T01:31:56.299Z,21.40
2022-08-18T01:34:27.868Z,21.40
2022-08-18T01:36:57.210Z,21.30
2022-08-18T01:41:25.959Z,21.30
2022-08-18T01:42:19.041Z,21.40
2022-08-18T01:44:51.354Z,21.40
2022-08-18T01:47:21.124Z,21.40
2022-08-18T01:49:49.962Z,21.40
2022-08-18T01:52:22.625Z,21.40
2022-08-18T01:54:54.763Z,21.40
2022-08-18T01:57:23.918Z,21.30
2022-08-18T01:59:52.619Z,21.40
2022-08-18T02:02:25.858Z,21.30
2022-08-18T02:04:56.978Z,21.40
2022-08-18T02:07:32.646Z,21.40
2022-08-18T02:10:11.793Z,21.40
2022-08-18T02:12:41.508Z,21.40
2022-08-18T02:15:11.381Z,21.50
2022-08-18T02:17:41.787Z,21.60
2022-08-18T02:20:13.555Z,21.60
2022-08-18T02:22:44.656Z,21.70
2022-08-18T02:25:15.925Z,21.60
2022-08-18T02:27:46.157Z,21.70
2022-08-18T02:30:17.307Z,21.40
2022-08-18T02:32:46.866Z,21.30
2022-08-18T02:35:15.779Z,21.40
2022-08-18T02:37:48.236Z,21.40
2022-08-18T02:40:19.538Z,21.40
2022-08-18T02:42:50.016Z,21.50
2022-08-18T02:45:18.779Z,21.20
2022-08-18T02:47:53.146Z,21.50
2022-08-18T02:50:22.578Z,21.50
2022-08-18T02:52:51.828Z,21.40
2022-08-18T02:55:22.741Z,21.40
2022-08-18T02:57:51.628Z,21.40
2022-08-18T03:00:21.259Z,21.40
2022-08-18T03:02:51.751Z,21.40
2022-08-18T03:05:21.374Z,21.10
2022-08-18T03:07:51.244Z,21.60
2022-08-18T03:10:32.743Z,21.80
2022-08-18T03:13:03.310Z,21.90
2022-08-18T03:15:32.523Z,22.00
2022-08-18T03:18:02.283Z,22.00
2022-08-18T03:20:31.615Z,22.00
2022-08-18T03:23:05.555Z,22.10
2022-08-18T03:25:46.473Z,22.10
2022-08-18T03:28:16.047Z,22.00
2022-08-18T03:30:44.922Z,22.00
2022-08-18T03:33:13.764Z,21.80
2022-08-18T03:35:42.967Z,21.70
2022-08-18T03:38:11.926Z,21.60
2022-08-18T03:40:43.501Z,21.60
2022-08-18T03:43:48.589Z,21.70
2022-08-18T03:46:03.469Z,21.50
2022-08-18T03:48:33.667Z,21.30
2022-08-18T03:51:07.071Z,21.30
2022-08-18T03:53:36.059Z,21.50
2022-08-18T03:56:17.737Z,21.50
2022-08-18T03:58:48.168Z,21.50
2022-08-18T04:01:25.296Z,21.60
2022-08-18T04:03:58.500Z,21.40
2022-08-18T04:06:30.684Z,21.40
2022-08-18T04:09:02.329Z,21.30
2022-08-18T04:11:36.575Z,21.20
2022-08-18T04:14:06.257Z,21.20
2022-08-18T04:16:38.545Z,21.10
2022-08-18T04:19:08.165Z,21.10
2022-08-18T04:21:40.371Z,21.20
2022-08-18T04:24:10.025Z,21.20
2022-08-18T04:26:44.230Z,21.20
2022-08-18T04:29:13.831Z,21.20
2022-08-18T04:31:42.827Z,21.30
2022-08-18T04:34:13.210Z,21.30
2022-08-18T04:36:42.932Z,21.40
2022-08-18T04:39:13.808Z,21.30
2022-08-18T04:41:45.461Z,21.60
2022-08-18T04:44:15.068Z,21.50
2022-08-18T04:46:46.370Z,21.50
2022-08-18T04:49:16.435Z,21.40
2022-08-18T04:52:26.899Z,21.40
2022-08-18T04:54:58.978Z,21.50
2022-08-18T04:57:33.026Z,21.40
2022-08-18T05:00:05.979Z,21.40
2022-08-18T05:02:35.182Z,21.40
2022-08-18T05:05:04.893Z,21.40
2022-08-18T05:07:33.830Z,21.40
2022-08-18T05:10:02.969Z,21.30
2022-08-18T05:12:33.484Z,21.30
2022-08-18T05:15:03.011Z,21.30
2022-08-18T05:17:32.799Z,21.20
2022-08-18T05:20:04.951Z,21.20
2022-08-18T05:22:40.370Z,21.40
2022-08-18T05:25:11.593Z,21.60
2022-08-18T05:27:44.201Z,21.70
2022-08-18T05:30:15.166Z,22.20
2022-08-18T05:32:49.597Z,21.90
2022-08-18T05:35:25.017Z,21.90
2022-08-18T05:38:16.833Z,22.00
2022-08-18T05:40:48.055Z,22.20
2022-08-18T05:43:18.763Z,22.70
2022-08-18T05:45:52.182Z,23.10
2022-08-18T05:48:21.320Z,23.40
2022-08-18T05:50:51.441Z,23.30
2022-08-18T05:53:41.560Z,23.20
2022-08-18T06:02:09.213Z,23.50
2022-08-18T06:04:46.146Z,23.30
2022-08-18T06:07:33.611Z,23.30
2022-08-18T06:10:03.249Z,23.40
2022-08-18T06:12:41.143Z,23.40
2022-08-18T06:15:17.317Z,23.40
2022-08-18T06:18:18.729Z,23.30
2022-08-18T06:21:22.782Z,23.00
2022-08-18T06:24:19.443Z,22.50
2022-08-18T06:26:56.800Z,22.30
2022-08-18T06:29:40.052Z,21.90
2022-08-18T06:32:24.177Z,21.60
2022-08-18T06:35:09.698Z,21.40
2022-08-18T06:38:11.594Z,21.30
2022-08-18T06:40:45.243Z,21.20
2022-08-18T06:43:17.301Z,20.80
2022-08-18T06:45:52.432Z,21.20
2022-08-18T06:48:27.500Z,21.20
2022-08-18T06:51:00.735Z,21.00
2022-08-18T06:53:58.344Z,21.00
2022-08-18T06:56:36.295Z,20.90
2022-08-18T06:59:32.705Z,20.90
2022-08-18T07:02:05.459Z,20.90
2022-08-18T07:04:44.564Z,20.90
2022-08-18T07:07:40.073Z,20.90
2022-08-18T07:10:33.155Z,20.90
2022-08-18T07:13:21.562Z,21.00
2022-08-18T07:15:51.114Z,20.90
2022-08-18T07:18:26.797Z,21.00
2022-08-18T07:20:58.042Z,21.10
2022-08-18T07:23:33.814Z,21.10
2022-08-18T07:26:10.611Z,21.10
2022-08-18T07:28:44.875Z,21.10
2022-08-18T07:31:31.050Z,21.10
2022-08-18T07:34:03.137Z,21.10
2022-08-18T07:36:38.923Z,21.10
2022-08-18T07:39:13.270Z,21.20
2022-08-18T07:41:44.826Z,21.20
2022-08-18T07:44:25.502Z,21.30
2022-08-18T07:47:01.302Z,21.40
2022-08-18T07:49:35.557Z,21.30
2022-08-18T07:52:14.606Z,21.60
2022-08-18T07:55:05.855Z,21.80
2022-08-18T07:57:43.826Z,22.00
2022-08-18T08:00:35.435Z,22.10
2022-08-18T08:03:27.597Z,22.10
2022-08-18T08:06:05.492Z,22.30
2022-08-18T08:08:41.300Z,22.40
2022-08-18T08:11:22.687Z,22.40
2022-08-18T08:14:02.574Z,22.50
2022-08-18T08:16:46.082Z,22.80
2022-08-18T08:19:59.929Z,22.70
2022-08-18T08:22:37.087Z,22.70
2022-08-18T08:25:35.117Z,22.70
2022-08-18T08:28:11.363Z,22.70
2022-08-18T08:30:49.157Z,22.80
2022-08-18T08:33:32.651Z,23.20
2022-08-18T08:36:09.362Z,24.30
2022-08-18T08:38:46.275Z,24.70
2022-08-18T08:41:21.482Z,24.90
2022-08-18T08:43:57.039Z,25.00
2022-08-18T08:46:30.281Z,25.00
2022-08-18T08:49:07.241Z,24.80
2022-08-18T08:51:41.354Z,24.70
2022-08-18T08:54:16.725Z,24.60
2022-08-18T08:56:48.695Z,24.50
2022-08-18T08:59:22.100Z,24.30
2022-08-18T09:02:00.777Z,24.40
2022-08-18T09:05:07.683Z,24.60
2022-08-18T09:08:09.037Z,24.70
2022-08-18T09:11:22.372Z,24.80
2022-08-18T09:14:09.214Z,24.80
2022-08-18T09:16:51.181Z,24.80
2022-08-18T09:19:49.571Z,24.50
2022-08-18T09:22:32.879Z,24.30
2022-08-18T09:25:02.808Z,24.40
2022-08-18T09:28:10.632Z,24.50
2022-08-18T09:30:51.337Z,24.50
2022-08-18T09:33:29.780Z,24.60
2022-08-18T09:36:44.329Z,24.70
2022-08-18T09:39:41.908Z,24.80
2022-08-18T09:42:14.445Z,24.90
2022-08-18T09:45:07.563Z,25.10
2022-08-18T09:48:20.674Z,25.20
2022-08-18T09:51:02.101Z,25.30
2022-08-18T09:54:09.914Z,25.20
2022-08-18T09:57:19.502Z,25.30
2022-08-18T10:00:19.982Z,25.20
2022-08-18T10:03:31.254Z,25.20
2022-08-18T10:06:26.847Z,25.10
2022-08-18T10:09:36.876Z,24.90
2022-08-18T10:12:33.185Z,24.90
2022-08-18T10:15:33.184Z,24.90
2022-08-18T10:18:45.822Z,25.00
2022-08-18T10:21:24.584Z,24.90
2022-08-18T10:24:21.889Z,25.10
2022-08-18T10:27:13.588Z,25.20
2022-08-18T10:29:52.481Z,25.50
2022-08-18T10:32:38.334Z,25.70
2022-08-18T10:35:29.283Z,26.70
2022-08-18T10:38:04.644Z,26.90
2022-08-18T10:40:34.859Z,27.30
2022-08-18T10:43:45.575Z,27.40
2022-08-18T10:46:24.987Z,27.20
2022-08-18T10:49:17.407Z,27.20
2022-08-18T10:52:15.399Z,26.90
2022-08-18T10:55:10.299Z,26.70
2022-08-18T10:58:04.847Z,26.50
2022-08-18T11:00:53.126Z,26.40
2022-08-18T11:03:50.169Z,26.30
2022-08-18T11:06:27.076Z,26.30
2022-08-18T11:09:01.184Z,26.20
2022-08-18T11:14:58.808Z,26.00
2022-08-18T11:17:42.730Z,26.10
2022-08-18T11:20:15.887Z,26.10
2022-08-18T11:22:57.156Z,26.30
2022-08-18T11:25:29.866Z,26.20
2022-08-18T11:28:00.435Z,26.20
2022-08-18T11:30:35.239Z,26.20
2022-08-18T11:33:10.066Z,26.10
2022-08-18T11:35:48.926Z,26.10
2022-08-18T11:38:23.101Z,26.30
2022-08-18T11:41:09.550Z,26.40
2022-08-18T11:43:43.106Z,26.40
2022-08-18T11:46:29.585Z,26.00
2022-08-18T11:49:26.267Z,26.50
2022-08-18T11:54:54.363Z,26.70
2022-08-18T11:57:31.819Z,26.80
2022-08-18T12:00:01.272Z,26.90
2022-08-18T12:02:30.427Z,28.10
2022-08-18T12:05:10.630Z,28.10
2022-08-18T12:07:51.123Z,28.40
2022-08-18T12:10:29.720Z,28.40
2022-08-18T12:13:01.247Z,28.20
2022-08-18T12:15:43.885Z,27.70
2022-08-18T12:18:28.107Z,27.40
2022-08-18T12:21:03.053Z,27.10
2022-08-18T12:23:44.740Z,26.90
2022-08-18T12:26:38.836Z,27.00
2022-08-18T12:29:18.151Z,27.60
2022-08-18T12:32:08.654Z,28.10
2022-08-18T12:34:50.439Z,28.20
2022-08-18T12:40:15.999Z,27.90
2022-08-18T12:42:46.257Z,27.70
2022-08-18T12:45:17.880Z,27.50
2022-08-18T12:47:55.250Z,27.60
2022-08-18T12:50:31.311Z,27.80
2022-08-18T12:53:06.946Z,28.10
2022-08-18T12:55:45.507Z,27.90
2022-08-18T12:58:16.990Z,28.10
2022-08-18T13:00:52.762Z,28.20
2022-08-18T13:03:25.257Z,28.10
2022-08-18T13:05:57.017Z,28.30
2022-08-18T13:08:38.145Z,28.30
2022-08-18T13:11:23.428Z,28.10
2022-08-18T13:13:57.198Z,27.50
2022-08-18T13:16:53.493Z,27.40
2022-08-18T13:19:32.033Z,27.50
2022-08-18T13:22:04.664Z,27.70
2022-08-18T13:24:37.956Z,27.80
2022-08-18T13:27:18.651Z,27.70
2022-08-18T13:29:53.265Z,27.40
2022-08-18T13:32:26.414Z,27.00
2022-08-18T13:34:58.110Z,26.60
2022-08-18T13:37:35.100Z,26.70
2022-08-18T13:40:13.584Z,26.60
2022-08-18T13:42:50.616Z,26.90
2022-08-18T13:45:25.289Z,26.60
2022-08-18T13:47:58.641Z,26.30
2022-08-18T13:50:31.926Z,26.70
2022-08-18T13:53:03.161Z,26.60
2022-08-18T13:55:37.112Z,26.80
2022-08-18T13:58:17.479Z,26.80
2022-08-18T14:00:53.948Z,26.80
2022-08-18T14:03:42.494Z,26.50
2022-08-18T14:06:24.958Z,25.90
2022-08-18T14:08:58.379Z,25.90
2022-08-18T14:11:32.987Z,26.10
2022-08-18T14:14:04.862Z,26.50
2022-08-18T14:16:35.744Z,26.90
2022-08-18T14:19:26.007Z,27.10
2022-08-18T14:22:15.139Z,27.30
2022-08-18T14:25:03.346Z,27.50
2022-08-18T14:27:38.201Z,27.70
2022-08-18T14:30:10.622Z,27.80
2022-08-18T14:32:48.638Z,27.90
2022-08-18T14:36:03.945Z,28.00
2022-08-18T14:38:16.125Z,28.10
2022-08-18T14:40:50.857Z,28.10
2022-08-18T14:43:24.914Z,28.10
2022-08-18T14:45:58.043Z,27.90
2022-08-18T14:48:29.016Z,27.50
2022-08-18T14:51:03.087Z,27.40
2022-08-18T14:53:34.821Z,27.10
2022-08-18T14:56:08.425Z,27.10
2022-08-18T14:58:41.977Z,27.10
2022-08-18T15:01:13.992Z,26.90
2022-08-18T15:03:45.663Z,26.90
2022-08-18T15:06:22.704Z,26.90
2022-08-18T15:08:57.160Z,27.00
2022-08-18T15:11:26.813Z,27.10
2022-08-18T15:14:03.661Z,27.10
2022-08-18T15:16:38.510Z,27.20
2022-08-18T15:19:37.836Z,27.10
2022-08-18T15:22:15.978Z,27.00
2022-08-18T15:25:02.816Z,27.00
2022-08-18T15:27:42.437Z,27.40
2022-08-18T15:30:19.526Z,27.40
2022-08-18T15:32:50.877Z,27.60
2022-08-18T15:35:21.445Z,27.60
2022-08-18T15:37:51.790Z,27.80
2022-08-18T15:40:31.052Z,27.80
2022-08-18T15:43:11.405Z,27.60
2022-08-18T15:45:56.139Z,27.80
2022-08-18T15:48:29.102Z,27.80
2022-08-18T15:51:08.019Z,27.90
2022-08-18T15:53:44.919Z,28.20
2022-08-18T15:56:20.914Z,28.30
2022-08-18T15:58:53.947Z,28.40
2022-08-18T16:01:30.213Z,28.40
2022-08-18T16:04:04.214Z,28.40
2022-08-18T16:06:45.580Z,28.40
2022-08-18T16:09:16.954Z,28.50
2022-08-18T16:11:47.366Z,28.50
2022-08-18T16:14:17.640Z,28.50
2022-08-18T16:16:50.720Z,28.50
2022-08-18T16:19:25.698Z,28.50
2022-08-18T16:21:59.609Z,28.50
2022-08-18T16:24:29.035Z,28.50
2022-08-18T16:26:58.473Z,28.50
2022-08-18T16:29:27.739Z,28.40
2022-08-18T16:32:03.765Z,28.40
2022-08-18T16:34:35.961Z,28.30
2022-08-18T16:37:09.597Z,28.30
2022-08-18T16:39:39.418Z,28.60
2022-08-18T16:42:09.479Z,28.40
2022-08-18T16:44:40.238Z,28.80
2022-08-18T16:47:13.058Z,28.40
2022-08-18T16:49:44.157Z,28.30
2022-08-18T16:52:14.119Z,28.10
2022-08-18T16:54:43.928Z,28.30
2022-08-18T16:57:53.735Z,28.10
2022-08-18T17:00:46.604Z,28.10
2022-08-18T17:03:44.889Z,28.10
2022-08-18T17:06:16.956Z,27.80
2022-08-18T17:08:47.370Z,27.70
2022-08-18T17:11:21.004Z,27.60
2022-08-18T17:13:54.194Z,27.60
2022-08-18T17:16:26.402Z,27.60
2022-08-18T17:18:59.451Z,27.50
2022-08-18T17:24:11.797Z,27.10
2022-08-18T17:26:50.971Z,27.40
2022-08-18T17:29:24.585Z,27.30
2022-08-18T17:31:59.740Z,27.20
2022-08-18T17:34:39.625Z,27.30
2022-08-18T17:37:11.743Z,27.40
2022-08-18T17:39:48.953Z,27.30
2022-08-18T17:42:35.848Z,27.40
2022-08-18T17:45:13.133Z,27.40
2022-08-18T17:48:03.293Z,27.10
2022-08-18T17:50:57.462Z,27.40
2022-08-18T17:53:27.568Z,27.50
2022-08-18T17:56:07.883Z,27.40
2022-08-18T17:58:42.187Z,27.30
2022-08-18T18:01:13.789Z,27.30
2022-08-18T18:03:45.782Z,27.30
2022-08-18T18:06:29.958Z,27.20
2022-08-18T18:09:02.400Z,27.20
2022-08-18T18:11:39.224Z,27.10
2022-08-18T18:14:28.113Z,27.00
2022-08-18T18:17:13.920Z,27.00
2022-08-18T18:19:43.777Z,27.00
2022-08-18T18:22:24.419Z,26.90
2022-08-18T18:24:58.487Z,26.80
2022-08-18T18:27:32.832Z,26.70
2022-08-18T18:30:11.806Z,26.70
2022-08-18T18:32:59.528Z,26.60
2022-08-18T18:35:34.083Z,26.60
2022-08-18T18:38:08.549Z,26.60
2022-08-18T18:40:42.529Z,26.50
2022-08-18T18:43:29.369Z,26.50
2022-08-18T18:46:24.767Z,26.50
2022-08-18T18:49:08.727Z,26.50
2022-08-18T18:51:44.274Z,26.50
2022-08-18T18:54:40.265Z,26.50
2022-08-18T18:57:16.670Z,26.30
2022-08-18T18:59:59.553Z,26.30
2022-08-18T19:02:38.150Z,26.20
2022-08-18T19:05:20.464Z,26.10
2022-08-18T19:08:01.762Z,26.00
2022-08-18T19:10:38.854Z,26.00
2022-08-18T19:15:51.964Z,26.50
2022-08-18T19:18:31.707Z,25.70
2022-08-18T19:22:03.727Z,25.60
2022-08-18T19:24:03.611Z,25.50
2022-08-18T19:26:42.193Z,25.40
2022-08-18T19:29:16.214Z,25.30
2022-08-18T19:31:52.502Z,25.30
2022-08-18T19:34:30.139Z,25.20
2022-08-18T19:37:08.409Z,25.20
2022-08-18T19:39:47.109Z,25.10
2022-08-18T19:42:24.790Z,25.10
2022-08-18T19:45:18.219Z,25.00
2022-08-18T19:47:56.026Z,25.00
2022-08-18T19:50:32.053Z,24.90
2022-08-18T19:53:21.963Z,24.90
2022-08-18T19:56:08.958Z,24.90
2022-08-18T19:59:18.285Z,24.80
2022-08-18T20:02:05.305Z,24.80
2022-08-18T20:04:49.445Z,24.70
2022-08-18T20:07:49.888Z,24.60
2022-08-18T20:10:51.037Z,24.60
2022-08-18T20:13:33.349Z,24.50
2022-08-18T20:16:43.191Z,24.50
2022-08-18T20:19:45.930Z,24.50
2022-08-18T20:22:37.050Z,24.20
2022-08-18T20:25:30.302Z,24.00
2022-08-18T20:28:40.295Z,23.90
2022-08-18T20:31:16.858Z,23.70
2022-08-18T20:34:14.163Z,23.60
2022-08-18T20:36:52.922Z,23.40
2022-08-18T20:39:46.242Z,23.40
2022-08-18T20:43:06.611Z,23.30
2022-08-18T20:45:42.639Z,23.20
2022-08-18T20:48:31.452Z,23.20
2022-08-18T20:51:10.966Z,23.10
2022-08-18T20:54:13.307Z,23.10
2022-08-18T20:56:50.950Z,23.00
2022-08-18T20:59:24.610Z,23.10
2022-08-18T21:02:05.397Z,23.10
2022-08-18T21:04:46.253Z,23.30
2022-08-18T21:07:36.236Z,23.50
2022-08-18T21:10:14.376Z,23.70
2022-08-18T21:12:52.524Z,23.70
2022-08-18T21:15:24.654Z,23.70
2022-08-18T21:18:07.858Z,23.70
2022-08-18T21:20:39.758Z,23.90
2022-08-18T21:23:15.716Z,23.50
2022-08-18T21:25:57.093Z,23.40
2022-08-18T21:28:29.230Z,23.40
2022-08-18T21:31:29.279Z,23.40
2022-08-18T21:34:06.201Z,23.30
2022-08-18T21:36:40.730Z,23.30
2022-08-18T21:39:20.343Z,23.30
2022-08-18T21:41:52.576Z,23.30
2022-08-18T21:44:37.090Z,23.30
2022-08-18T21:47:09.804Z,23.30
2022-08-18T21:49:38.864Z,23.30
2022-08-18T21:52:09.562Z,23.20
2022-08-18T21:54:49.097Z,23.20
2022-08-18T21:57:24.133Z,23.20
2022-08-18T22:00:14.987Z,23.20
2022-08-18T22:02:45.645Z,23.10
2022-08-18T22:05:26.916Z,23.00
2022-08-18T22:07:56.192Z,22.80
2022-08-18T22:10:43.772Z,22.90
2022-08-18T22:13:39.795Z,22.80
2022-08-18T22:16:31.552Z,22.80
2022-08-18T22:19:20.938Z,22.70
2022-08-18T22:22:02.103Z,22.60
2022-08-18T22:24:43.928Z,22.70
2022-08-18T22:27:25.452Z,22.70
2022-08-18T22:30:04.435Z,22.70
2022-08-18T22:32:36.291Z,22.60
2022-08-18T22:35:10.524Z,22.60
2022-08-18T22:37:50.901Z,22.60
2022-08-18T22:40:23.006Z,22.50
2022-08-18T22:45:41.576Z,22.40
2022-08-18T22:48:11.359Z,22.40
2022-08-18T22:50:47.390Z,22.40
2022-08-18T22:53:19.967Z,22.40
2022-08-18T22:55:49.499Z,22.40
2022-08-18T22:58:22.188Z,22.30
2022-08-18T23:01:01.155Z,22.20
2022-08-18T23:03:41.771Z,22.10
2022-08-18T23:06:11.780Z,22.10
2022-08-18T23:08:54.196Z,22.00
2022-08-18T23:11:25.928Z,21.40
2022-08-18T23:13:57.994Z,21.90
2022-08-18T23:19:41.008Z,21.80
2022-08-18T23:22:11.908Z,21.80
2022-08-18T23:24:41.854Z,21.80
2022-08-18T23:27:10.823Z,21.80
2022-08-18T23:29:41.338Z,21.80
2022-08-18T23:32:10.838Z,21.80
2022-08-18T23:34:39.660Z,21.70
2022-08-18T23:37:09.797Z,21.70
2022-08-18T23:39:39.989Z,21.70
2022-08-18T23:42:17.869Z,21.70
2022-08-18T23:44:48.529Z,21.80
2022-08-18T23:47:21.219Z,21.80
2022-08-18T23:49:51.780Z,21.80
2022-08-18T23:52:21.702Z,21.70
2022-08-18T23:54:50.383Z,21.60
2022-08-18T23:57:19.222Z,21.60
2022-08-18T23:59:51.371Z,21.60
